sensor_id;sensor_type;location;lat;lon;timestamp;temperature;humidity
15554;DHT22;7878;44.632;10.942;2023-01-15T00:00:14;8.70;94.00
15554;DHT22;7878;44.632;10.942;2023-01-15T00:02:40;8.70;94.10
15554;DHT22;7878;44.632;10.942;2023-01-15T00:05:06;8.80;94.10
15554;DHT22;7878;44.632;10.942;2023-01-15T00:07:32;8.80;94.00
15554;DHT22;7878;44.632;10.942;2023-01-15T00:09:57;8.80;93.80
15554;DHT22;7878;44.632;10.942;2023-01-15T00:12:23;8.80;93.80
15554;DHT22;7878;44.632;10.942;2023-01-15T00:14:49;8.70;93.60
15554;DHT22;7878;44.632;10.942;2023-01-15T00:17:14;8.70;93.60
15554;DHT22;7878;44.632;10.942;2023-01-15T00:19:40;8.70;93.50
15554;DHT22;7878;44.632;10.942;2023-01-15T00:22:06;8.70;93.60
15554;DHT22;7878;44.632;10.942;2023-01-15T00:24:31;8.60;93.40
15554;DHT22;7878;44.632;10.942;2023-01-15T00:27:15;8.60;93.30
15554;DHT22;7878;44.632;10.942;2023-01-15T00:29:59;8.50;93.30
15554;DHT22;7878;44.632;10.942;2023-01-15T00:32:25;8.40;93.30
15554;DHT22;7878;44.632;10.942;2023-01-15T00:34:54;8.40;93.40
15554;DHT22;7878;44.632;10.942;2023-01-15T00:37:20;8.40;93.30
15554;DHT22;7878;44.632;10.942;2023-01-15T00:39:46;8.40;93.30
15554;DHT22;7878;44.632;10.942;2023-01-15T00:42:12;8.30;93.50
15554;DHT22;7878;44.632;10.942;2023-01-15T00:44:38;8.30;93.20
15554;DHT22;7878;44.632;10.942;2023-01-15T00:47:03;8.20;93.40
15554;DHT22;7878;44.632;10.942;2023-01-15T00:49:30;8.20;93.50
15554;DHT22;7878;44.632;10.942;2023-01-15T00:51:56;8.20;93.50
15554;DHT22;7878;44.632;10.942;2023-01-15T00:54:21;8.30;93.50
15554;DHT22;7878;44.632;10.942;2023-01-15T00:56:47;8.20;93.50
15554;DHT22;7878;44.632;10.942;2023-01-15T00:59:13;8.20;93.50
15554;DHT22;7878;44.632;10.942;2023-01-15T01:01:39;8.10;93.50
15554;DHT22;7878;44.632;10.942;2023-01-15T01:04:05;8.00;94.00
15554;DHT22;7878;44.632;10.942;2023-01-15T01:06:31;8.10;93.70
15554;DHT22;7878;44.632;10.942;2023-01-15T01:08:56;8.10;93.50
15554;DHT22;7878;44.632;10.942;2023-01-15T01:11:23;8.10;93.80
15554;DHT22;7878;44.632;10.942;2023-01-15T01:13:52;8.10;93.70
15554;DHT22;7878;44.632;10.942;2023-01-15T01:16:34;8.10;93.60
15554;DHT22;7878;44.632;10.942;2023-01-15T01:19:05;8.10;93.70
15554;DHT22;7878;44.632;10.942;2023-01-15T01:21:31;8.10;93.50
15554;DHT22;7878;44.632;10.942;2023-01-15T01:23:58;8.10;93.40
15554;DHT22;7878;44.632;10.942;2023-01-15T01:26:25;8.10;93.50
15554;DHT22;7878;44.632;10.942;2023-01-15T01:28:51;8.00;93.40
15554;DHT22;7878;44.632;10.942;2023-01-15T01:31:18;8.00;93.60
15554;DHT22;7878;44.632;10.942;2023-01-15T01:33:50;8.00;93.50
15554;DHT22;7878;44.632;10.942;2023-01-15T01:36:16;8.00;93.50
15554;DHT22;7878;44.632;10.942;2023-01-15T01:38:42;8.10;93.40
15554;DHT22;7878;44.632;10.942;2023-01-15T01:41:08;8.10;93.50
15554;DHT22;7878;44.632;10.942;2023-01-15T01:44:00;8.00;93.30
15554;DHT22;7878;44.632;10.942;2023-01-15T01:46:29;7.90;93.70
15554;DHT22;7878;44.632;10.942;2023-01-15T01:49:11;7.80;93.40
15554;DHT22;7878;44.632;10.942;2023-01-15T01:51:44;7.80;93.60
15554;DHT22;7878;44.632;10.942;2023-01-15T01:54:13;7.90;93.60
15554;DHT22;7878;44.632;10.942;2023-01-15T01:56:41;7.90;93.40
15554;DHT22;7878;44.632;10.942;2023-01-15T01:59:07;7.90;93.20
15554;DHT22;7878;44.632;10.942;2023-01-15T02:01:33;7.90;93.20
15554;DHT22;7878;44.632;10.942;2023-01-15T02:03:59;7.90;93.30
15554;DHT22;7878;44.632;10.942;2023-01-15T02:06:26;7.90;93.20
15554;DHT22;7878;44.632;10.942;2023-01-15T02:08:53;7.90;93.40
15554;DHT22;7878;44.632;10.942;2023-01-15T02:11:20;7.90;93.30
15554;DHT22;7878;44.632;10.942;2023-01-15T02:16:37;7.90;93.50
15554;DHT22;7878;44.632;10.942;2023-01-15T02:21:58;7.90;93.50
15554;DHT22;7878;44.632;10.942;2023-01-15T02:27:18;7.90;93.60
15554;DHT22;7878;44.632;10.942;2023-01-15T02:29:55;7.90;93.40
15554;DHT22;7878;44.632;10.942;2023-01-15T02:32:36;8.00;93.60
15554;DHT22;7878;44.632;10.942;2023-01-15T02:35:12;8.00;93.40
15554;DHT22;7878;44.632;10.942;2023-01-15T02:37:42;7.90;93.50
15554;DHT22;7878;44.632;10.942;2023-01-15T02:40:11;7.90;93.60
15554;DHT22;7878;44.632;10.942;2023-01-15T02:42:39;8.00;93.60
15554;DHT22;7878;44.632;10.942;2023-01-15T02:45:06;8.00;93.50
15554;DHT22;7878;44.632;10.942;2023-01-15T02:47:35;8.10;93.80
15554;DHT22;7878;44.632;10.942;2023-01-15T02:50:06;8.20;93.50
15554;DHT22;7878;44.632;10.942;2023-01-15T02:52:38;8.20;93.50
15554;DHT22;7878;44.632;10.942;2023-01-15T02:55:10;8.30;93.50
15554;DHT22;7878;44.632;10.942;2023-01-15T02:57:38;8.20;93.70
15554;DHT22;7878;44.632;10.942;2023-01-15T03:00:10;8.20;93.80
15554;DHT22;7878;44.632;10.942;2023-01-15T03:02:45;8.30;94.00
15554;DHT22;7878;44.632;10.942;2023-01-15T03:05:19;8.30;94.10
15554;DHT22;7878;44.632;10.942;2023-01-15T03:07:59;8.30;94.10
15554;DHT22;7878;44.632;10.942;2023-01-15T03:13:02;8.40;94.20
15554;DHT22;7878;44.632;10.942;2023-01-15T03:18:36;8.50;94.10
15554;DHT22;7878;44.632;10.942;2023-01-15T03:21:05;8.50;93.90
15554;DHT22;7878;44.632;10.942;2023-01-15T03:23:35;8.50;94.10
15554;DHT22;7878;44.632;10.942;2023-01-15T03:26:02;8.50;94.00
15554;DHT22;7878;44.632;10.942;2023-01-15T03:28:30;8.40;94.10
15554;DHT22;7878;44.632;10.942;2023-01-15T03:30:58;8.50;94.10
15554;DHT22;7878;44.632;10.942;2023-01-15T03:33:24;8.50;94.10
15554;DHT22;7878;44.632;10.942;2023-01-15T03:35:52;8.60;93.90
15554;DHT22;7878;44.632;10.942;2023-01-15T03:38:22;8.60;93.80
15554;DHT22;7878;44.632;10.942;2023-01-15T03:49:45;8.50;94.40
15554;DHT22;7878;44.632;10.942;2023-01-15T03:52:38;8.50;93.90
15554;DHT22;7878;44.632;10.942;2023-01-15T03:57:56;8.40;93.70
15554;DHT22;7878;44.632;10.942;2023-01-15T04:00:42;8.40;94.20
15554;DHT22;7878;44.632;10.942;2023-01-15T04:03:09;8.40;94.20
15554;DHT22;7878;44.632;10.942;2023-01-15T04:05:36;8.40;93.90
15554;DHT22;7878;44.632;10.942;2023-01-15T04:08:03;8.50;94.20
15554;DHT22;7878;44.632;10.942;2023-01-15T04:10:30;8.50;93.90
15554;DHT22;7878;44.632;10.942;2023-01-15T04:12:55;8.50;93.90
15554;DHT22;7878;44.632;10.942;2023-01-15T04:15:21;8.60;93.90
15554;DHT22;7878;44.632;10.942;2023-01-15T04:17:47;8.60;93.90
15554;DHT22;7878;44.632;10.942;2023-01-15T04:20:12;8.60;94.00
15554;DHT22;7878;44.632;10.942;2023-01-15T04:22:38;8.60;94.00
15554;DHT22;7878;44.632;10.942;2023-01-15T04:25:05;8.60;93.90
15554;DHT22;7878;44.632;10.942;2023-01-15T04:27:31;8.60;93.90
15554;DHT22;7878;44.632;10.942;2023-01-15T04:29:57;8.60;94.00
15554;DHT22;7878;44.632;10.942;2023-01-15T04:32:22;8.60;94.00
15554;DHT22;7878;44.632;10.942;2023-01-15T04:34:49;8.60;94.10
15554;DHT22;7878;44.632;10.942;2023-01-15T04:37:15;8.50;94.10
15554;DHT22;7878;44.632;10.942;2023-01-15T04:39:41;8.50;94.20
15554;DHT22;7878;44.632;10.942;2023-01-15T04:42:12;8.50;94.20
15554;DHT22;7878;44.632;10.942;2023-01-15T04:44:56;8.60;94.30
15554;DHT22;7878;44.632;10.942;2023-01-15T04:47:22;8.50;94.30
15554;DHT22;7878;44.632;10.942;2023-01-15T04:49:47;8.50;94.50
15554;DHT22;7878;44.632;10.942;2023-01-15T04:52:14;8.50;94.60
15554;DHT22;7878;44.632;10.942;2023-01-15T04:54:39;8.50;94.50
15554;DHT22;7878;44.632;10.942;2023-01-15T04:57:05;8.60;94.50
15554;DHT22;7878;44.632;10.942;2023-01-15T04:59:31;8.60;94.50
15554;DHT22;7878;44.632;10.942;2023-01-15T05:01:56;8.60;94.50
15554;DHT22;7878;44.632;10.942;2023-01-15T05:04:22;8.60;94.50
15554;DHT22;7878;44.632;10.942;2023-01-15T05:06:48;8.60;94.50
15554;DHT22;7878;44.632;10.942;2023-01-15T05:09:14;8.60;94.60
15554;DHT22;7878;44.632;10.942;2023-01-15T05:11:40;8.50;94.50
15554;DHT22;7878;44.632;10.942;2023-01-15T05:14:06;8.50;94.40
15554;DHT22;7878;44.632;10.942;2023-01-15T05:16:32;8.40;94.60
15554;DHT22;7878;44.632;10.942;2023-01-15T05:19:01;8.40;94.60
15554;DHT22;7878;44.632;10.942;2023-01-15T05:21:30;8.40;94.50
15554;DHT22;7878;44.632;10.942;2023-01-15T05:23:58;8.50;94.60
15554;DHT22;7878;44.632;10.942;2023-01-15T05:26:25;8.50;94.60
15554;DHT22;7878;44.632;10.942;2023-01-15T05:28:55;8.60;94.60
15554;DHT22;7878;44.632;10.942;2023-01-15T05:31:21;8.50;94.60
15554;DHT22;7878;44.632;10.942;2023-01-15T05:33:47;8.50;94.90
15554;DHT22;7878;44.632;10.942;2023-01-15T05:36:16;8.50;94.80
15554;DHT22;7878;44.632;10.942;2023-01-15T05:38:42;8.50;94.70
15554;DHT22;7878;44.632;10.942;2023-01-15T05:41:17;8.50;94.80
15554;DHT22;7878;44.632;10.942;2023-01-15T05:44:11;8.50;94.70
15554;DHT22;7878;44.632;10.942;2023-01-15T05:46:39;8.50;94.90
15554;DHT22;7878;44.632;10.942;2023-01-15T05:49:07;8.50;95.00
15554;DHT22;7878;44.632;10.942;2023-01-15T05:51:34;8.50;95.00
15554;DHT22;7878;44.632;10.942;2023-01-15T05:54:00;8.50;95.00
15554;DHT22;7878;44.632;10.942;2023-01-15T05:56:26;8.60;94.90
15554;DHT22;7878;44.632;10.942;2023-01-15T05:58:52;8.70;94.90
15554;DHT22;7878;44.632;10.942;2023-01-15T06:01:19;8.70;94.80
15554;DHT22;7878;44.632;10.942;2023-01-15T06:03:45;8.70;94.80
15554;DHT22;7878;44.632;10.942;2023-01-15T06:06:14;8.70;94.80
15554;DHT22;7878;44.632;10.942;2023-01-15T06:08:40;8.70;95.20
15554;DHT22;7878;44.632;10.942;2023-01-15T06:11:06;8.80;94.90
15554;DHT22;7878;44.632;10.942;2023-01-15T06:13:32;8.80;95.00
15554;DHT22;7878;44.632;10.942;2023-01-15T06:15:59;8.80;95.00
15554;DHT22;7878;44.632;10.942;2023-01-15T06:18:25;8.80;95.00
15554;DHT22;7878;44.632;10.942;2023-01-15T06:20:51;8.80;95.00
15554;DHT22;7878;44.632;10.942;2023-01-15T06:23:17;8.80;95.10
15554;DHT22;7878;44.632;10.942;2023-01-15T06:25:43;8.80;95.10
15554;DHT22;7878;44.632;10.942;2023-01-15T06:28:09;8.80;95.00
15554;DHT22;7878;44.632;10.942;2023-01-15T06:30:37;8.80;95.00
15554;DHT22;7878;44.632;10.942;2023-01-15T06:33:03;8.80;95.10
15554;DHT22;7878;44.632;10.942;2023-01-15T06:35:29;8.80;95.00
15554;DHT22;7878;44.632;10.942;2023-01-15T06:37:55;8.80;95.00
15554;DHT22;7878;44.632;10.942;2023-01-15T06:40:21;8.90;95.00
15554;DHT22;7878;44.632;10.942;2023-01-15T06:42:48;8.90;95.00
15554;DHT22;7878;44.632;10.942;2023-01-15T06:45:37;8.90;95.00
15554;DHT22;7878;44.632;10.942;2023-01-15T06:48:23;8.90;95.00
15554;DHT22;7878;44.632;10.942;2023-01-15T06:50:49;8.90;95.00
15554;DHT22;7878;44.632;10.942;2023-01-15T06:53:15;8.90;95.00
15554;DHT22;7878;44.632;10.942;2023-01-15T06:55:41;8.90;95.00
15554;DHT22;7878;44.632;10.942;2023-01-15T06:58:06;8.90;95.10
15554;DHT22;7878;44.632;10.942;2023-01-15T07:00:32;8.90;95.00
15554;DHT22;7878;44.632;10.942;2023-01-15T07:03:02;8.90;95.00
15554;DHT22;7878;44.632;10.942;2023-01-15T07:05:28;8.90;95.00
15554;DHT22;7878;44.632;10.942;2023-01-15T07:07:53;8.90;95.10
15554;DHT22;7878;44.632;10.942;2023-01-15T07:10:19;8.90;95.10
15554;DHT22;7878;44.632;10.942;2023-01-15T07:12:45;9.00;95.10
15554;DHT22;7878;44.632;10.942;2023-01-15T07:15:11;9.00;95.10
15554;DHT22;7878;44.632;10.942;2023-01-15T07:17:37;8.90;95.20
15554;DHT22;7878;44.632;10.942;2023-01-15T07:20:03;8.90;95.20
15554;DHT22;7878;44.632;10.942;2023-01-15T07:22:29;8.90;95.30
15554;DHT22;7878;44.632;10.942;2023-01-15T07:24:55;8.90;95.10
15554;DHT22;7878;44.632;10.942;2023-01-15T07:27:21;9.00;95.10
15554;DHT22;7878;44.632;10.942;2023-01-15T07:29:47;8.90;95.20
15554;DHT22;7878;44.632;10.942;2023-01-15T07:32:14;8.90;95.20
15554;DHT22;7878;44.632;10.942;2023-01-15T07:34:40;8.90;95.50
15554;DHT22;7878;44.632;10.942;2023-01-15T07:37:05;8.90;95.40
15554;DHT22;7878;44.632;10.942;2023-01-15T07:39:32;8.90;95.50
15554;DHT22;7878;44.632;10.942;2023-01-15T07:41:57;9.00;95.50
15554;DHT22;7878;44.632;10.942;2023-01-15T07:44:42;8.90;95.50
15554;DHT22;7878;44.632;10.942;2023-01-15T07:47:26;8.90;95.60
15554;DHT22;7878;44.632;10.942;2023-01-15T07:50:14;9.00;95.60
15554;DHT22;7878;44.632;10.942;2023-01-15T07:52:40;9.00;95.60
15554;DHT22;7878;44.632;10.942;2023-01-15T07:55:06;9.00;95.50
15554;DHT22;7878;44.632;10.942;2023-01-15T07:57:34;9.00;95.60
15554;DHT22;7878;44.632;10.942;2023-01-15T08:00:00;9.10;95.60
15554;DHT22;7878;44.632;10.942;2023-01-15T08:02:26;9.10;95.60
15554;DHT22;7878;44.632;10.942;2023-01-15T08:04:52;9.10;95.60
15554;DHT22;7878;44.632;10.942;2023-01-15T08:07:17;9.10;95.50
15554;DHT22;7878;44.632;10.942;2023-01-15T08:09:43;9.20;95.50
15554;DHT22;7878;44.632;10.942;2023-01-15T08:12:10;9.10;95.60
15554;DHT22;7878;44.632;10.942;2023-01-15T08:14:54;9.10;95.50
15554;DHT22;7878;44.632;10.942;2023-01-15T08:17:45;9.20;95.40
15554;DHT22;7878;44.632;10.942;2023-01-15T08:20:24;9.20;95.50
15554;DHT22;7878;44.632;10.942;2023-01-15T08:22:51;9.20;95.60
15554;DHT22;7878;44.632;10.942;2023-01-15T08:25:19;9.20;95.40
15554;DHT22;7878;44.632;10.942;2023-01-15T08:27:46;9.30;95.50
15554;DHT22;7878;44.632;10.942;2023-01-15T08:30:14;9.30;95.60
15554;DHT22;7878;44.632;10.942;2023-01-15T08:32:40;9.30;95.60
15554;DHT22;7878;44.632;10.942;2023-01-15T08:35:06;9.30;95.70
15554;DHT22;7878;44.632;10.942;2023-01-15T08:37:32;9.30;95.70
15554;DHT22;7878;44.632;10.942;2023-01-15T08:39:58;9.40;95.50
15554;DHT22;7878;44.632;10.942;2023-01-15T08:42:23;9.40;95.60
15554;DHT22;7878;44.632;10.942;2023-01-15T08:44:49;9.40;95.50
15554;DHT22;7878;44.632;10.942;2023-01-15T08:47:16;9.40;95.50
15554;DHT22;7878;44.632;10.942;2023-01-15T08:49:42;9.40;95.60
15554;DHT22;7878;44.632;10.942;2023-01-15T08:52:08;9.40;95.50
15554;DHT22;7878;44.632;10.942;2023-01-15T08:54:34;9.50;95.50
15554;DHT22;7878;44.632;10.942;2023-01-15T08:56:59;9.50;95.50
15554;DHT22;7878;44.632;10.942;2023-01-15T08:59:25;9.60;95.50
15554;DHT22;7878;44.632;10.942;2023-01-15T09:01:51;9.70;95.50
15554;DHT22;7878;44.632;10.942;2023-01-15T09:04:19;9.60;95.40
15554;DHT22;7878;44.632;10.942;2023-01-15T09:06:46;9.70;95.30
15554;DHT22;7878;44.632;10.942;2023-01-15T09:09:11;9.70;95.50
15554;DHT22;7878;44.632;10.942;2023-01-15T09:11:38;9.70;95.30
15554;DHT22;7878;44.632;10.942;2023-01-15T09:14:11;9.70;95.40
15554;DHT22;7878;44.632;10.942;2023-01-15T09:16:37;9.70;95.30
15554;DHT22;7878;44.632;10.942;2023-01-15T09:19:04;9.70;95.30
15554;DHT22;7878;44.632;10.942;2023-01-15T09:21:31;9.70;95.40
15554;DHT22;7878;44.632;10.942;2023-01-15T09:23:57;9.80;95.40
15554;DHT22;7878;44.632;10.942;2023-01-15T09:26:37;9.80;95.40
15554;DHT22;7878;44.632;10.942;2023-01-15T09:29:04;9.90;95.40
15554;DHT22;7878;44.632;10.942;2023-01-15T09:31:31;9.90;95.30
15554;DHT22;7878;44.632;10.942;2023-01-15T09:33:57;9.90;95.10
15554;DHT22;7878;44.632;10.942;2023-01-15T09:36:24;10.00;94.70
15554;DHT22;7878;44.632;10.942;2023-01-15T09:38:50;10.00;94.60
15554;DHT22;7878;44.632;10.942;2023-01-15T09:41:16;10.00;94.60
15554;DHT22;7878;44.632;10.942;2023-01-15T09:57:42;10.40;94.30
15554;DHT22;7878;44.632;10.942;2023-01-15T10:00:16;10.40;94.20
15554;DHT22;7878;44.632;10.942;2023-01-15T10:08:43;10.50;94.70
15554;DHT22;7878;44.632;10.942;2023-01-15T10:11:20;10.50;94.30
15554;DHT22;7878;44.632;10.942;2023-01-15T10:16:22;10.60;94.10
15554;DHT22;7878;44.632;10.942;2023-01-15T10:18:49;10.60;94.20
15554;DHT22;7878;44.632;10.942;2023-01-15T10:21:43;10.60;94.20
15554;DHT22;7878;44.632;10.942;2023-01-15T10:24:18;10.70;94.20
15554;DHT22;7878;44.632;10.942;2023-01-15T10:35:03;10.50;94.10
15554;DHT22;7878;44.632;10.942;2023-01-15T10:45:41;10.50;94.60
15554;DHT22;7878;44.632;10.942;2023-01-15T10:48:13;10.40;94.30
15554;DHT22;7878;44.632;10.942;2023-01-15T10:50:40;10.50;94.30
15554;DHT22;7878;44.632;10.942;2023-01-15T10:58:40;10.40;94.40
15554;DHT22;7878;44.632;10.942;2023-01-15T11:01:15;10.40;94.50
15554;DHT22;7878;44.632;10.942;2023-01-15T11:03:44;10.50;94.50
15554;DHT22;7878;44.632;10.942;2023-01-15T11:06:19;10.50;94.50
15554;DHT22;7878;44.632;10.942;2023-01-15T11:08:49;10.50;94.70
15554;DHT22;7878;44.632;10.942;2023-01-15T11:11:34;10.50;94.40
15554;DHT22;7878;44.632;10.942;2023-01-15T11:14:19;10.50;94.50
15554;DHT22;7878;44.632;10.942;2023-01-15T11:17:06;10.50;94.50
15554;DHT22;7878;44.632;10.942;2023-01-15T11:19:36;10.50;94.50
15554;DHT22;7878;44.632;10.942;2023-01-15T11:22:13;10.50;94.50
15554;DHT22;7878;44.632;10.942;2023-01-15T11:24:51;10.60;94.50
15554;DHT22;7878;44.632;10.942;2023-01-15T11:27:30;10.60;94.70
15554;DHT22;7878;44.632;10.942;2023-01-15T11:29:59;10.60;94.80
15554;DHT22;7878;44.632;10.942;2023-01-15T11:32:33;10.60;94.60
15554;DHT22;7878;44.632;10.942;2023-01-15T11:35:16;10.60;94.70
15554;DHT22;7878;44.632;10.942;2023-01-15T11:37:42;10.60;94.80
15554;DHT22;7878;44.632;10.942;2023-01-15T11:40:20;10.60;94.70
15554;DHT22;7878;44.632;10.942;2023-01-15T11:42:48;10.60;94.80
15554;DHT22;7878;44.632;10.942;2023-01-15T11:45:33;10.60;94.70
15554;DHT22;7878;44.632;10.942;2023-01-15T11:48:21;10.60;94.70
15554;DHT22;7878;44.632;10.942;2023-01-15T11:51:07;10.60;94.80
15554;DHT22;7878;44.632;10.942;2023-01-15T11:53:54;10.50;94.70
15554;DHT22;7878;44.632;10.942;2023-01-15T11:56:26;10.60;95.00
15554;DHT22;7878;44.632;10.942;2023-01-15T11:58:55;10.60;94.70
15554;DHT22;7878;44.632;10.942;2023-01-15T12:01:28;10.60;94.70
15554;DHT22;7878;44.632;10.942;2023-01-15T12:03:56;10.60;94.80
15554;DHT22;7878;44.632;10.942;2023-01-15T12:06:23;10.60;94.70
15554;DHT22;7878;44.632;10.942;2023-01-15T12:09:05;10.70;94.80
15554;DHT22;7878;44.632;10.942;2023-01-15T12:12:02;10.80;95.00
15554;DHT22;7878;44.632;10.942;2023-01-15T12:14:52;10.80;94.90
15554;DHT22;7878;44.632;10.942;2023-01-15T12:26:31;11.30;94.60
15554;DHT22;7878;44.632;10.942;2023-01-15T12:29:21;11.30;94.60
15554;DHT22;7878;44.632;10.942;2023-01-15T12:31:56;11.40;94.90
15554;DHT22;7878;44.632;10.942;2023-01-15T12:34:44;11.40;94.60
15554;DHT22;7878;44.632;10.942;2023-01-15T12:37:20;11.50;94.60
15554;DHT22;7878;44.632;10.942;2023-01-15T12:42:21;11.40;94.60
15554;DHT22;7878;44.632;10.942;2023-01-15T12:47:48;11.60;94.50
15554;DHT22;7878;44.632;10.942;2023-01-15T12:50:40;11.60;94.80
15554;DHT22;7878;44.632;10.942;2023-01-15T12:55:59;11.80;94.60
15554;DHT22;7878;44.632;10.942;2023-01-15T13:01:36;12.00;94.60
15554;DHT22;7878;44.632;10.942;2023-01-15T13:06:31;11.90;94.30
15554;DHT22;7878;44.632;10.942;2023-01-15T13:09:16;11.80;94.30
15554;DHT22;7878;44.632;10.942;2023-01-15T13:11:44;11.80;94.50
15554;DHT22;7878;44.632;10.942;2023-01-15T13:14:17;11.70;94.40
15554;DHT22;7878;44.632;10.942;2023-01-15T13:16:47;11.60;94.60
15554;DHT22;7878;44.632;10.942;2023-01-15T13:19:43;11.60;94.60
15554;DHT22;7878;44.632;10.942;2023-01-15T13:22:17;11.60;94.90
15554;DHT22;7878;44.632;10.942;2023-01-15T13:24:58;11.50;94.80
15554;DHT22;7878;44.632;10.942;2023-01-15T13:30:50;11.40;95.00
15554;DHT22;7878;44.632;10.942;2023-01-15T13:33:39;11.40;95.00
15554;DHT22;7878;44.632;10.942;2023-01-15T13:36:47;11.30;95.30
15554;DHT22;7878;44.632;10.942;2023-01-15T13:39:20;11.30;95.30
15554;DHT22;7878;44.632;10.942;2023-01-15T13:41:48;11.20;95.10
15554;DHT22;7878;44.632;10.942;2023-01-15T13:44:37;11.30;95.10
15554;DHT22;7878;44.632;10.942;2023-01-15T13:47:12;11.30;95.10
15554;DHT22;7878;44.632;10.942;2023-01-15T13:49:48;11.20;95.10
15554;DHT22;7878;44.632;10.942;2023-01-15T13:52:26;11.20;95.20
15554;DHT22;7878;44.632;10.942;2023-01-15T13:54:54;11.20;95.40
15554;DHT22;7878;44.632;10.942;2023-01-15T13:57:23;11.20;95.20
15554;DHT22;7878;44.632;10.942;2023-01-15T13:59:50;11.10;95.40
15554;DHT22;7878;44.632;10.942;2023-01-15T14:02:28;11.10;95.40
15554;DHT22;7878;44.632;10.942;2023-01-15T14:04:54;11.00;95.40
15554;DHT22;7878;44.632;10.942;2023-01-15T14:07:32;11.00;95.30
15554;DHT22;7878;44.632;10.942;2023-01-15T14:18:17;10.90;95.80
15554;DHT22;7878;44.632;10.942;2023-01-15T14:31:39;10.90;96.00
15554;DHT22;7878;44.632;10.942;2023-01-15T14:34:28;10.90;96.30
15554;DHT22;7878;44.632;10.942;2023-01-15T14:37:06;10.80;95.80
15554;DHT22;7878;44.632;10.942;2023-01-15T14:40:16;10.80;95.90
15554;DHT22;7878;44.632;10.942;2023-01-15T14:42:42;10.80;96.30
15554;DHT22;7878;44.632;10.942;2023-01-15T14:45:38;10.80;95.80
15554;DHT22;7878;44.632;10.942;2023-01-15T14:48:17;10.80;96.10
15554;DHT22;7878;44.632;10.942;2023-01-15T14:50:43;10.80;95.80
15554;DHT22;7878;44.632;10.942;2023-01-15T14:56:28;10.80;96.30
15554;DHT22;7878;44.632;10.942;2023-01-15T15:02:05;10.80;96.10
15554;DHT22;7878;44.632;10.942;2023-01-15T15:04:49;10.70;96.10
15554;DHT22;7878;44.632;10.942;2023-01-15T15:07:21;10.70;96.10
15554;DHT22;7878;44.632;10.942;2023-01-15T15:09:56;10.80;96.20
15554;DHT22;7878;44.632;10.942;2023-01-15T15:12:38;10.70;96.20
15554;DHT22;7878;44.632;10.942;2023-01-15T15:18:21;10.70;96.80
15554;DHT22;7878;44.632;10.942;2023-01-15T15:23:36;10.60;96.40
15554;DHT22;7878;44.632;10.942;2023-01-15T15:26:06;10.60;96.90
15554;DHT22;7878;44.632;10.942;2023-01-15T15:28:41;10.50;96.70
15554;DHT22;7878;44.632;10.942;2023-01-15T15:31:07;10.40;97.10
15554;DHT22;7878;44.632;10.942;2023-01-15T15:33:38;10.30;96.90
15554;DHT22;7878;44.632;10.942;2023-01-15T15:36:05;10.40;96.90
15554;DHT22;7878;44.632;10.942;2023-01-15T15:38:32;10.40;96.80
15554;DHT22;7878;44.632;10.942;2023-01-15T15:41:04;10.40;97.20
15554;DHT22;7878;44.632;10.942;2023-01-15T15:43:49;10.30;97.00
15554;DHT22;7878;44.632;10.942;2023-01-15T15:46:35;10.30;97.20
15554;DHT22;7878;44.632;10.942;2023-01-15T15:49:20;10.30;97.10
15554;DHT22;7878;44.632;10.942;2023-01-15T15:51:48;10.30;97.40
15554;DHT22;7878;44.632;10.942;2023-01-15T15:54:24;10.20;97.10
15554;DHT22;7878;44.632;10.942;2023-01-15T16:01:59;10.30;97.60
15554;DHT22;7878;44.632;10.942;2023-01-15T16:04:32;10.30;97.20
15554;DHT22;7878;44.632;10.942;2023-01-15T16:06:57;10.40;97.40
15554;DHT22;7878;44.632;10.942;2023-01-15T16:09:23;10.30;97.60
15554;DHT22;7878;44.632;10.942;2023-01-15T16:11:51;10.20;97.70
15554;DHT22;7878;44.632;10.942;2023-01-15T16:14:18;10.20;97.60
15554;DHT22;7878;44.632;10.942;2023-01-15T16:16:46;10.20;97.60
15554;DHT22;7878;44.632;10.942;2023-01-15T16:19:18;10.20;97.70
15554;DHT22;7878;44.632;10.942;2023-01-15T16:21:46;10.10;97.70
15554;DHT22;7878;44.632;10.942;2023-01-15T16:24:23;10.20;97.70
15554;DHT22;7878;44.632;10.942;2023-01-15T16:27:07;10.20;97.90
15554;DHT22;7878;44.632;10.942;2023-01-15T16:29:36;10.20;98.20
15554;DHT22;7878;44.632;10.942;2023-01-15T16:32:09;10.20;98.00
15554;DHT22;7878;44.632;10.942;2023-01-15T16:34:36;10.20;98.10
15554;DHT22;7878;44.632;10.942;2023-01-15T16:37:02;10.20;98.20
15554;DHT22;7878;44.632;10.942;2023-01-15T16:41:55;10.20;98.10
15554;DHT22;7878;44.632;10.942;2023-01-15T16:47:00;10.20;98.30
15554;DHT22;7878;44.632;10.942;2023-01-15T16:49:29;10.20;98.10
15554;DHT22;7878;44.632;10.942;2023-01-15T16:51:57;10.20;98.20
15554;DHT22;7878;44.632;10.942;2023-01-15T17:01:54;10.10;98.20
15554;DHT22;7878;44.632;10.942;2023-01-15T17:04:30;10.00;98.40
15554;DHT22;7878;44.632;10.942;2023-01-15T17:09:54;10.10;98.40
15554;DHT22;7878;44.632;10.942;2023-01-15T17:12:27;10.20;98.50
15554;DHT22;7878;44.632;10.942;2023-01-15T17:15:27;10.20;98.40
15554;DHT22;7878;44.632;10.942;2023-01-15T17:17:46;10.20;98.20
15554;DHT22;7878;44.632;10.942;2023-01-15T17:20:13;10.20;98.20
15554;DHT22;7878;44.632;10.942;2023-01-15T17:22:41;10.30;98.10
15554;DHT22;7878;44.632;10.942;2023-01-15T17:27:48;10.30;98.70
15554;DHT22;7878;44.632;10.942;2023-01-15T17:30:15;10.30;98.30
15554;DHT22;7878;44.632;10.942;2023-01-15T17:32:41;10.30;98.30
15554;DHT22;7878;44.632;10.942;2023-01-15T17:37:42;10.30;98.40
15554;DHT22;7878;44.632;10.942;2023-01-15T17:40:08;10.30;98.40
15554;DHT22;7878;44.632;10.942;2023-01-15T17:42:33;10.20;98.20
15554;DHT22;7878;44.632;10.942;2023-01-15T17:44:59;10.20;98.40
15554;DHT22;7878;44.632;10.942;2023-01-15T17:47:25;10.20;98.50
15554;DHT22;7878;44.632;10.942;2023-01-15T17:49:50;10.20;98.30
15554;DHT22;7878;44.632;10.942;2023-01-15T17:52:18;10.30;98.70
15554;DHT22;7878;44.632;10.942;2023-01-15T17:54:44;10.30;98.50
15554;DHT22;7878;44.632;10.942;2023-01-15T17:57:28;10.30;98.60
15554;DHT22;7878;44.632;10.942;2023-01-15T18:00:12;10.30;98.50
15554;DHT22;7878;44.632;10.942;2023-01-15T18:02:57;10.30;98.50
15554;DHT22;7878;44.632;10.942;2023-01-15T18:05:42;10.20;98.50
15554;DHT22;7878;44.632;10.942;2023-01-15T18:08:10;10.20;98.50
15554;DHT22;7878;44.632;10.942;2023-01-15T18:10:37;10.30;98.70
15554;DHT22;7878;44.632;10.942;2023-01-15T18:13:03;10.30;98.80
15554;DHT22;7878;44.632;10.942;2023-01-15T18:15:32;10.30;98.60
15554;DHT22;7878;44.632;10.942;2023-01-15T18:17:57;10.30;98.70
15554;DHT22;7878;44.632;10.942;2023-01-15T18:20:23;10.20;98.60
15554;DHT22;7878;44.632;10.942;2023-01-15T18:22:49;10.20;99.00
15554;DHT22;7878;44.632;10.942;2023-01-15T18:25:14;10.30;98.80
15554;DHT22;7878;44.632;10.942;2023-01-15T18:27:40;10.30;98.80
15554;DHT22;7878;44.632;10.942;2023-01-15T18:30:13;10.20;98.70
15554;DHT22;7878;44.632;10.942;2023-01-15T18:32:39;10.30;98.80
15554;DHT22;7878;44.632;10.942;2023-01-15T18:35:06;10.20;98.70